Buford, WY (82052)

11:15 AM MST on March 06, 2015 (GMT -0700)
Spring Creek Ranch | Change Station
CLOSE
Current Station
Personal Weather Station
Location: Cheyenne, WY
Elevation: 6897 ft
Nearby Weather Stations

Elev 6897 ft 41.25 °N, 105.09 °W | Updated 26 seconds ago

Clear
Clear
40.6 °F
Feels Like 33 °F
N
13.0
Wind Variable Wind from South
Gusts 20.0 mph

Today
High -- | Low -- °F
--% Chance of Precip.
Yesterday
High -- | Low -- °F
Precip. -- in
6:27 AM 5:57 PM
Full, 99% visible
Pressure 30.25 in
Visibility 10.0 miles
Clouds Clear
Windchill 33 °F
Dew Point 18 °F
Humidity 40%
Rainfall in
Snow Depth Not available.
UV 4.6 out of 12
Pollen 4.60 out of 12
Air Quality Not available.
Flu Activity Not available.
METAR KFEW 061756Z AUTO 29015G21KT 10SM CLR 06/M10 A3023 RMK AO2 SLP243 T00631096 10063 21031 50004 $

More Conditions Fewer Conditions

Pressure 30.25 in
Visibility 10.0 miles
Clouds Clear
Windchill 33 °F
Dew Point 18 °F
Humidity 40%
Rainfall in
Snow Depth Not available.
UV 4.6 out of 12
Pollen 4.60 out of 12
Air Quality Not available.
Flu Activity Not available.
METAR KFEW 061756Z AUTO 29015G21KT 10SM CLR 06/M10 A3023 RMK AO2 SLP243 T00631096 10063 21031 50004 $

More Conditions Fewer Conditions

10-Day Weather Forecast

Almanac

Astronomy

Mar. 06, 2015 Rise Set
Actual Time
Civil Twilight
Nautical Twilight
Astronomical Twilight
Moon
Length of Visible Light
Length of Day
Tomorrow will be .
, % of the Moon is Illuminated

Today's Extremes

State Highs State Lows

Community

WunderPhotos

Upload Photos

1,803,357 photos uploaded!

WunderBlogs® & News

Nearby

Air Quality

  Air Quality AQ Index Pollutant
Not available.

Snow Depth

Station Depth Elevation

Earthquake Activity

City Distance Mag. Time & Date
Minimum magnitude displayed is 2.5.

Coastal Water Temperatures

Place Temperature

Nearby Weather Stations